sensor_id;sensor_type;location;lat;lon;timestamp;P1;durP1;ratioP1;P2;durP2;ratioP2
68577;SDS011;61668;45.388;11.784;2022-12-20T00:01:13;54.60;;;30.80;;
68577;SDS011;61668;45.388;11.784;2022-12-20T00:03:44;59.90;;;31.40;;
68577;SDS011;61668;45.388;11.784;2022-12-20T00:06:11;52.30;;;28.30;;
68577;SDS011;61668;45.388;11.784;2022-12-20T00:08:38;49.20;;;27.60;;
68577;SDS011;61668;45.388;11.784;2022-12-20T00:11:06;54.60;;;31.10;;
68577;SDS011;61668;45.388;11.784;2022-12-20T00:13:34;63.50;;;33.70;;
68577;SDS011;61668;45.388;11.784;2022-12-20T00:16:14;52.40;;;28.20;;
68577;SDS011;61668;45.388;11.784;2022-12-20T00:18:42;61.70;;;33.40;;
68577;SDS011;61668;45.388;11.784;2022-12-20T00:21:11;71.60;;;33.30;;
68577;SDS011;61668;45.388;11.784;2022-12-20T00:23:38;61.60;;;28.40;;
68577;SDS011;61668;45.388;11.784;2022-12-20T00:28:39;47.60;;;24.90;;
68577;SDS011;61668;45.388;11.784;2022-12-20T00:31:07;51.40;;;26.20;;
68577;SDS011;61668;45.388;11.784;2022-12-20T00:33:35;42.60;;;23.90;;
68577;SDS011;61668;45.388;11.784;2022-12-20T00:36:02;47.10;;;24.10;;
68577;SDS011;61668;45.388;11.784;2022-12-20T00:38:29;56.30;;;29.30;;
68577;SDS011;61668;45.388;11.784;2022-12-20T00:41:04;53.40;;;27.50;;
68577;SDS011;61668;45.388;11.784;2022-12-20T00:43:49;54.80;;;28.30;;
68577;SDS011;61668;45.388;11.784;2022-12-20T00:46:17;43.50;;;24.30;;
68577;SDS011;61668;45.388;11.784;2022-12-20T00:48:43;43.90;;;23.70;;
68577;SDS011;61668;45.388;11.784;2022-12-20T00:51:12;45.00;;;23.20;;
68577;SDS011;61668;45.388;11.784;2022-12-20T00:53:40;41.30;;;23.10;;
68577;SDS011;61668;45.388;11.784;2022-12-20T00:56:06;46.80;;;24.40;;
68577;SDS011;61668;45.388;11.784;2022-12-20T00:58:33;47.90;;;25.30;;
68577;SDS011;61668;45.388;11.784;2022-12-20T01:01:00;48.20;;;25.90;;
68577;SDS011;61668;45.388;11.784;2022-12-20T01:03:27;54.20;;;29.30;;
68577;SDS011;61668;45.388;11.784;2022-12-20T01:05:59;49.30;;;26.90;;
68577;SDS011;61668;45.388;11.784;2022-12-20T01:08:28;44.90;;;25.70;;
68577;SDS011;61668;45.388;11.784;2022-12-20T01:13:27;46.50;;;23.50;;
68577;SDS011;61668;45.388;11.784;2022-12-20T01:15:54;45.90;;;24.70;;
68577;SDS011;61668;45.388;11.784;2022-12-20T01:18:20;44.10;;;23.80;;
68577;SDS011;61668;45.388;11.784;2022-12-20T01:20:46;47.60;;;26.00;;
68577;SDS011;61668;45.388;11.784;2022-12-20T01:23:11;43.20;;;24.90;;
68577;SDS011;61668;45.388;11.784;2022-12-20T01:25:37;49.10;;;24.50;;
68577;SDS011;61668;45.388;11.784;2022-12-20T01:28:03;45.60;;;24.40;;
68577;SDS011;61668;45.388;11.784;2022-12-20T01:30:28;43.30;;;24.50;;
68577;SDS011;61668;45.388;11.784;2022-12-20T01:32:54;46.10;;;24.20;;
68577;SDS011;61668;45.388;11.784;2022-12-20T01:35:19;45.00;;;24.70;;
68577;SDS011;61668;45.388;11.784;2022-12-20T01:37:45;43.20;;;24.00;;
68577;SDS011;61668;45.388;11.784;2022-12-20T01:40:11;40.90;;;23.60;;
68577;SDS011;61668;45.388;11.784;2022-12-20T01:42:36;43.20;;;24.20;;
68577;SDS011;61668;45.388;11.784;2022-12-20T01:45:07;47.30;;;24.40;;
68577;SDS011;61668;45.388;11.784;2022-12-20T01:47:37;43.80;;;23.30;;
68577;SDS011;61668;45.388;11.784;2022-12-20T01:50:04;46.10;;;24.60;;
68577;SDS011;61668;45.388;11.784;2022-12-20T01:52:37;47.10;;;26.60;;
68577;SDS011;61668;45.388;11.784;2022-12-20T01:55:12;47.40;;;22.60;;
68577;SDS011;61668;45.388;11.784;2022-12-20T01:58:00;44.40;;;22.40;;
68577;SDS011;61668;45.388;11.784;2022-12-20T02:00:27;40.20;;;22.00;;
68577;SDS011;61668;45.388;11.784;2022-12-20T02:02:54;45.40;;;21.40;;
68577;SDS011;61668;45.388;11.784;2022-12-20T02:05:23;43.30;;;22.40;;
68577;SDS011;61668;45.388;11.784;2022-12-20T02:07:52;45.30;;;23.20;;
68577;SDS011;61668;45.388;11.784;2022-12-20T02:10:21;45.10;;;25.10;;
68577;SDS011;61668;45.388;11.784;2022-12-20T02:12:51;44.90;;;23.40;;
68577;SDS011;61668;45.388;11.784;2022-12-20T02:15:40;36.40;;;21.50;;
68577;SDS011;61668;45.388;11.784;2022-12-20T02:18:23;38.90;;;21.10;;
68577;SDS011;61668;45.388;11.784;2022-12-20T02:29:54;41.50;;;22.00;;
68577;SDS011;61668;45.388;11.784;2022-12-20T02:32:26;37.70;;;20.30;;
68577;SDS011;61668;45.388;11.784;2022-12-20T02:34:55;40.20;;;20.30;;
68577;SDS011;61668;45.388;11.784;2022-12-20T02:37:21;42.70;;;20.60;;
68577;SDS011;61668;45.388;11.784;2022-12-20T02:39:47;42.30;;;20.00;;
68577;SDS011;61668;45.388;11.784;2022-12-20T02:42:18;38.60;;;20.20;;
68577;SDS011;61668;45.388;11.784;2022-12-20T02:45:03;40.60;;;20.10;;
68577;SDS011;61668;45.388;11.784;2022-12-20T02:47:56;36.40;;;18.60;;
68577;SDS011;61668;45.388;11.784;2022-12-20T02:50:35;39.70;;;20.60;;
68577;SDS011;61668;45.388;11.784;2022-12-20T02:53:04;39.80;;;20.40;;
68577;SDS011;61668;45.388;11.784;2022-12-20T02:55:40;37.60;;;19.40;;
68577;SDS011;61668;45.388;11.784;2022-12-20T02:58:27;43.50;;;20.70;;
68577;SDS011;61668;45.388;11.784;2022-12-20T03:01:01;35.10;;;19.50;;
68577;SDS011;61668;45.388;11.784;2022-12-20T03:03:32;32.50;;;18.70;;
68577;SDS011;61668;45.388;11.784;2022-12-20T03:05:59;38.40;;;19.70;;
68577;SDS011;61668;45.388;11.784;2022-12-20T03:08:25;32.30;;;18.50;;
68577;SDS011;61668;45.388;11.784;2022-12-20T03:10:52;38.50;;;18.10;;
68577;SDS011;61668;45.388;11.784;2022-12-20T03:13:19;36.60;;;19.00;;
68577;SDS011;61668;45.388;11.784;2022-12-20T03:15:46;37.40;;;18.80;;
68577;SDS011;61668;45.388;11.784;2022-12-20T03:18:12;40.30;;;20.20;;
68577;SDS011;61668;45.388;11.784;2022-12-20T03:20:37;39.70;;;19.80;;
68577;SDS011;61668;45.388;11.784;2022-12-20T03:23:03;38.70;;;20.80;;
68577;SDS011;61668;45.388;11.784;2022-12-20T03:25:29;35.90;;;19.60;;
68577;SDS011;61668;45.388;11.784;2022-12-20T03:27:54;37.50;;;19.50;;
68577;SDS011;61668;45.388;11.784;2022-12-20T03:30:20;37.30;;;19.10;;
68577;SDS011;61668;45.388;11.784;2022-12-20T03:32:45;40.20;;;20.00;;
68577;SDS011;61668;45.388;11.784;2022-12-20T03:35:11;40.20;;;19.10;;
68577;SDS011;61668;45.388;11.784;2022-12-20T03:37:37;39.40;;;20.60;;
68577;SDS011;61668;45.388;11.784;2022-12-20T03:40:03;38.60;;;20.10;;
68577;SDS011;61668;45.388;11.784;2022-12-20T03:42:30;37.30;;;19.00;;
68577;SDS011;61668;45.388;11.784;2022-12-20T03:44:56;38.30;;;19.60;;
68577;SDS011;61668;45.388;11.784;2022-12-20T03:47:21;35.80;;;19.20;;
68577;SDS011;61668;45.388;11.784;2022-12-20T03:49:47;39.10;;;20.90;;
68577;SDS011;61668;45.388;11.784;2022-12-20T03:52:13;38.70;;;19.00;;
68577;SDS011;61668;45.388;11.784;2022-12-20T03:54:40;33.30;;;18.60;;
68577;SDS011;61668;45.388;11.784;2022-12-20T03:57:06;35.50;;;18.90;;
68577;SDS011;61668;45.388;11.784;2022-12-20T03:59:32;40.80;;;21.00;;
68577;SDS011;61668;45.388;11.784;2022-12-20T04:01:57;35.30;;;19.50;;
68577;SDS011;61668;45.388;11.784;2022-12-20T04:04:23;40.50;;;19.80;;
68577;SDS011;61668;45.388;11.784;2022-12-20T04:06:49;38.70;;;21.90;;
68577;SDS011;61668;45.388;11.784;2022-12-20T04:09:14;46.70;;;23.00;;
68577;SDS011;61668;45.388;11.784;2022-12-20T04:11:40;61.30;;;26.80;;
68577;SDS011;61668;45.388;11.784;2022-12-20T04:14:06;43.70;;;21.60;;
68577;SDS011;61668;45.388;11.784;2022-12-20T04:16:32;39.50;;;19.70;;
68577;SDS011;61668;45.388;11.784;2022-12-20T04:18:58;34.30;;;18.20;;
68577;SDS011;61668;45.388;11.784;2022-12-20T04:21:28;36.80;;;17.30;;
68577;SDS011;61668;45.388;11.784;2022-12-20T04:23:55;33.50;;;18.20;;
68577;SDS011;61668;45.388;11.784;2022-12-20T04:26:22;31.20;;;16.80;;
68577;SDS011;61668;45.388;11.784;2022-12-20T04:28:48;32.20;;;17.70;;
68577;SDS011;61668;45.388;11.784;2022-12-20T04:31:14;35.10;;;17.90;;
68577;SDS011;61668;45.388;11.784;2022-12-20T04:33:39;34.10;;;17.70;;
68577;SDS011;61668;45.388;11.784;2022-12-20T04:36:05;36.70;;;18.60;;
68577;SDS011;61668;45.388;11.784;2022-12-20T04:38:32;35.00;;;18.90;;
68577;SDS011;61668;45.388;11.784;2022-12-20T04:40:58;33.40;;;17.80;;
68577;SDS011;61668;45.388;11.784;2022-12-20T04:43:24;35.20;;;18.60;;
68577;SDS011;61668;45.388;11.784;2022-12-20T04:45:51;36.40;;;17.40;;
68577;SDS011;61668;45.388;11.784;2022-12-20T04:48:21;29.40;;;15.90;;
68577;SDS011;61668;45.388;11.784;2022-12-20T04:50:49;30.80;;;16.50;;
68577;SDS011;61668;45.388;11.784;2022-12-20T04:53:15;32.50;;;16.80;;
68577;SDS011;61668;45.388;11.784;2022-12-20T04:56:00;32.50;;;16.40;;
68577;SDS011;61668;45.388;11.784;2022-12-20T04:58:27;32.80;;;16.30;;
68577;SDS011;61668;45.388;11.784;2022-12-20T05:00:52;31.30;;;18.30;;
68577;SDS011;61668;45.388;11.784;2022-12-20T05:03:19;32.80;;;18.80;;
68577;SDS011;61668;45.388;11.784;2022-12-20T05:05:45;34.50;;;17.60;;
68577;SDS011;61668;45.388;11.784;2022-12-20T05:08:11;32.90;;;18.90;;
68577;SDS011;61668;45.388;11.784;2022-12-20T05:10:37;32.20;;;16.30;;
68577;SDS011;61668;45.388;11.784;2022-12-20T05:13:03;31.10;;;17.10;;
68577;SDS011;61668;45.388;11.784;2022-12-20T05:15:29;32.30;;;17.10;;
68577;SDS011;61668;45.388;11.784;2022-12-20T05:17:54;32.60;;;15.90;;
68577;SDS011;61668;45.388;11.784;2022-12-20T05:20:30;34.80;;;17.50;;
68577;SDS011;61668;45.388;11.784;2022-12-20T05:22:57;33.90;;;17.90;;
68577;SDS011;61668;45.388;11.784;2022-12-20T05:25:47;33.20;;;18.00;;
68577;SDS011;61668;45.388;11.784;2022-12-20T05:28:14;35.10;;;19.20;;
68577;SDS011;61668;45.388;11.784;2022-12-20T05:30:40;32.40;;;17.20;;
68577;SDS011;61668;45.388;11.784;2022-12-20T05:33:05;56.30;;;29.30;;
68577;SDS011;61668;45.388;11.784;2022-12-20T05:35:31;41.10;;;20.30;;
68577;SDS011;61668;45.388;11.784;2022-12-20T05:37:57;32.00;;;15.90;;
68577;SDS011;61668;45.388;11.784;2022-12-20T05:40:22;31.30;;;16.00;;
68577;SDS011;61668;45.388;11.784;2022-12-20T05:42:48;38.50;;;23.50;;
68577;SDS011;61668;45.388;11.784;2022-12-20T05:45:13;37.50;;;20.20;;
68577;SDS011;61668;45.388;11.784;2022-12-20T05:47:39;35.90;;;21.30;;
68577;SDS011;61668;45.388;11.784;2022-12-20T05:50:05;36.90;;;21.50;;
68577;SDS011;61668;45.388;11.784;2022-12-20T05:52:32;37.00;;;19.80;;
68577;SDS011;61668;45.388;11.784;2022-12-20T05:54:57;31.40;;;16.10;;
68577;SDS011;61668;45.388;11.784;2022-12-20T05:57:23;37.40;;;18.20;;
68577;SDS011;61668;45.388;11.784;2022-12-20T05:59:48;35.20;;;19.60;;
68577;SDS011;61668;45.388;11.784;2022-12-20T06:02:14;32.30;;;16.90;;
68577;SDS011;61668;45.388;11.784;2022-12-20T06:04:39;38.60;;;20.60;;
68577;SDS011;61668;45.388;11.784;2022-12-20T06:07:05;35.70;;;19.00;;
68577;SDS011;61668;45.388;11.784;2022-12-20T06:09:31;35.40;;;19.50;;
68577;SDS011;61668;45.388;11.784;2022-12-20T06:11:57;32.30;;;17.00;;
68577;SDS011;61668;45.388;11.784;2022-12-20T06:14:24;34.20;;;17.20;;
68577;SDS011;61668;45.388;11.784;2022-12-20T06:16:50;38.10;;;19.50;;
68577;SDS011;61668;45.388;11.784;2022-12-20T06:19:15;34.40;;;16.90;;
68577;SDS011;61668;45.388;11.784;2022-12-20T06:21:41;31.40;;;16.80;;
68577;SDS011;61668;45.388;11.784;2022-12-20T06:24:07;33.00;;;19.30;;
68577;SDS011;61668;45.388;11.784;2022-12-20T06:26:33;35.90;;;16.60;;
68577;SDS011;61668;45.388;11.784;2022-12-20T06:29:05;31.90;;;16.00;;
68577;SDS011;61668;45.388;11.784;2022-12-20T06:31:33;30.50;;;15.20;;
68577;SDS011;61668;45.388;11.784;2022-12-20T06:33:59;29.80;;;16.30;;
68577;SDS011;61668;45.388;11.784;2022-12-20T06:36:25;30.40;;;14.80;;
68577;SDS011;61668;45.388;11.784;2022-12-20T06:38:50;29.30;;;15.80;;
68577;SDS011;61668;45.388;11.784;2022-12-20T06:41:16;35.50;;;16.90;;
68577;SDS011;61668;45.388;11.784;2022-12-20T06:43:42;54.40;;;29.10;;
68577;SDS011;61668;45.388;11.784;2022-12-20T06:46:08;37.60;;;21.40;;
68577;SDS011;61668;45.388;11.784;2022-12-20T06:48:33;32.10;;;17.40;;
68577;SDS011;61668;45.388;11.784;2022-12-20T06:50:59;35.60;;;19.20;;
68577;SDS011;61668;45.388;11.784;2022-12-20T06:53:25;35.30;;;18.20;;
68577;SDS011;61668;45.388;11.784;2022-12-20T06:55:50;34.70;;;19.90;;
68577;SDS011;61668;45.388;11.784;2022-12-20T06:58:17;29.00;;;16.00;;
68577;SDS011;61668;45.388;11.784;2022-12-20T07:00:43;28.30;;;14.60;;
68577;SDS011;61668;45.388;11.784;2022-12-20T07:03:08;28.60;;;14.70;;
68577;SDS011;61668;45.388;11.784;2022-12-20T07:05:40;36.20;;;18.70;;
68577;SDS011;61668;45.388;11.784;2022-12-20T07:08:06;32.10;;;16.90;;
68577;SDS011;61668;45.388;11.784;2022-12-20T07:10:33;35.30;;;18.20;;
68577;SDS011;61668;45.388;11.784;2022-12-20T07:13:00;33.30;;;17.50;;
68577;SDS011;61668;45.388;11.784;2022-12-20T07:15:25;31.40;;;14.30;;
68577;SDS011;61668;45.388;11.784;2022-12-20T07:17:51;27.20;;;14.10;;
68577;SDS011;61668;45.388;11.784;2022-12-20T07:20:17;27.60;;;14.80;;
68577;SDS011;61668;45.388;11.784;2022-12-20T07:22:46;30.70;;;15.80;;
68577;SDS011;61668;45.388;11.784;2022-12-20T07:25:12;24.40;;;13.10;;
68577;SDS011;61668;45.388;11.784;2022-12-20T07:27:40;25.20;;;13.40;;
68577;SDS011;61668;45.388;11.784;2022-12-20T07:30:06;27.40;;;15.20;;
68577;SDS011;61668;45.388;11.784;2022-12-20T07:32:32;29.10;;;14.80;;
68577;SDS011;61668;45.388;11.784;2022-12-20T07:34:58;34.50;;;15.20;;
68577;SDS011;61668;45.388;11.784;2022-12-20T07:37:28;27.70;;;14.10;;
68577;SDS011;61668;45.388;11.784;2022-12-20T07:39:54;32.70;;;16.60;;
68577;SDS011;61668;45.388;11.784;2022-12-20T07:42:19;26.20;;;14.50;;
68577;SDS011;61668;45.388;11.784;2022-12-20T07:44:45;25.70;;;14.10;;
68577;SDS011;61668;45.388;11.784;2022-12-20T07:47:13;25.60;;;14.40;;
68577;SDS011;61668;45.388;11.784;2022-12-20T07:49:38;29.30;;;13.80;;
68577;SDS011;61668;45.388;11.784;2022-12-20T07:52:05;26.10;;;14.40;;
68577;SDS011;61668;45.388;11.784;2022-12-20T07:54:35;26.80;;;14.90;;
68577;SDS011;61668;45.388;11.784;2022-12-20T07:57:19;36.80;;;17.00;;
68577;SDS011;61668;45.388;11.784;2022-12-20T07:59:53;54.70;;;25.20;;
68577;SDS011;61668;45.388;11.784;2022-12-20T08:02:35;35.60;;;20.30;;
68577;SDS011;61668;45.388;11.784;2022-12-20T08:05:06;35.50;;;18.20;;
68577;SDS011;61668;45.388;11.784;2022-12-20T08:07:33;30.80;;;16.60;;
68577;SDS011;61668;45.388;11.784;2022-12-20T08:09:59;32.30;;;15.80;;
68577;SDS011;61668;45.388;11.784;2022-12-20T08:12:28;24.20;;;13.70;;
68577;SDS011;61668;45.388;11.784;2022-12-20T08:14:56;29.00;;;14.80;;
68577;SDS011;61668;45.388;11.784;2022-12-20T08:17:23;36.90;;;18.20;;
68577;SDS011;61668;45.388;11.784;2022-12-20T08:19:51;28.70;;;13.70;;
68577;SDS011;61668;45.388;11.784;2022-12-20T08:22:17;29.20;;;13.60;;
68577;SDS011;61668;45.388;11.784;2022-12-20T08:24:44;29.60;;;14.20;;
68577;SDS011;61668;45.388;11.784;2022-12-20T08:27:10;27.40;;;14.00;;
68577;SDS011;61668;45.388;11.784;2022-12-20T08:29:35;27.40;;;14.60;;
68577;SDS011;61668;45.388;11.784;2022-12-20T08:32:01;31.00;;;14.90;;
68577;SDS011;61668;45.388;11.784;2022-12-20T08:34:27;27.60;;;13.80;;
68577;SDS011;61668;45.388;11.784;2022-12-20T08:36:52;28.70;;;14.70;;
68577;SDS011;61668;45.388;11.784;2022-12-20T08:39:18;31.80;;;16.60;;
68577;SDS011;61668;45.388;11.784;2022-12-20T08:41:44;32.20;;;16.70;;
68577;SDS011;61668;45.388;11.784;2022-12-20T08:44:09;29.30;;;15.10;;
68577;SDS011;61668;45.388;11.784;2022-12-20T08:46:35;33.20;;;15.90;;
68577;SDS011;61668;45.388;11.784;2022-12-20T08:49:03;31.50;;;15.60;;
68577;SDS011;61668;45.388;11.784;2022-12-20T08:51:29;29.30;;;15.80;;
68577;SDS011;61668;45.388;11.784;2022-12-20T08:53:55;31.90;;;13.40;;
68577;SDS011;61668;45.388;11.784;2022-12-20T08:56:21;33.10;;;16.50;;
68577;SDS011;61668;45.388;11.784;2022-12-20T08:58:47;37.60;;;18.10;;
68577;SDS011;61668;45.388;11.784;2022-12-20T09:01:15;30.30;;;14.90;;
68577;SDS011;61668;45.388;11.784;2022-12-20T09:03:42;27.30;;;14.10;;
68577;SDS011;61668;45.388;11.784;2022-12-20T09:06:17;33.00;;;17.10;;
68577;SDS011;61668;45.388;11.784;2022-12-20T09:08:45;43.20;;;23.00;;
68577;SDS011;61668;45.388;11.784;2022-12-20T09:11:19;26.10;;;12.70;;
68577;SDS011;61668;45.388;11.784;2022-12-20T09:13:49;33.60;;;14.70;;
68577;SDS011;61668;45.388;11.784;2022-12-20T09:16:18;26.90;;;14.00;;
68577;SDS011;61668;45.388;11.784;2022-12-20T09:18:50;28.30;;;13.70;;
68577;SDS011;61668;45.388;11.784;2022-12-20T09:21:17;24.30;;;12.00;;
68577;SDS011;61668;45.388;11.784;2022-12-20T09:23:43;26.10;;;13.50;;
68577;SDS011;61668;45.388;11.784;2022-12-20T09:26:11;26.70;;;12.80;;
68577;SDS011;61668;45.388;11.784;2022-12-20T09:28:38;26.80;;;14.00;;
68577;SDS011;61668;45.388;11.784;2022-12-20T09:31:06;38.90;;;18.00;;
68577;SDS011;61668;45.388;11.784;2022-12-20T09:33:34;29.00;;;12.50;;
68577;SDS011;61668;45.388;11.784;2022-12-20T09:36:00;24.30;;;13.50;;
68577;SDS011;61668;45.388;11.784;2022-12-20T09:38:30;25.40;;;13.30;;
68577;SDS011;61668;45.388;11.784;2022-12-20T09:40:58;26.60;;;13.70;;
68577;SDS011;61668;45.388;11.784;2022-12-20T09:43:27;24.70;;;11.90;;
68577;SDS011;61668;45.388;11.784;2022-12-20T09:45:57;30.60;;;12.90;;
68577;SDS011;61668;45.388;11.784;2022-12-20T09:48:32;26.00;;;11.90;;
68577;SDS011;61668;45.388;11.784;2022-12-20T09:53:45;25.00;;;12.10;;
68577;SDS011;61668;45.388;11.784;2022-12-20T09:56:24;25.80;;;12.60;;
68577;SDS011;61668;45.388;11.784;2022-12-20T09:59:07;25.40;;;12.90;;
68577;SDS011;61668;45.388;11.784;2022-12-20T10:01:37;22.90;;;12.10;;
68577;SDS011;61668;45.388;11.784;2022-12-20T10:04:11;26.40;;;12.80;;
68577;SDS011;61668;45.388;11.784;2022-12-20T10:09:25;26.20;;;12.60;;
68577;SDS011;61668;45.388;11.784;2022-12-20T10:12:20;23.50;;;13.40;;
68577;SDS011;61668;45.388;11.784;2022-12-20T10:15:13;27.30;;;14.30;;
68577;SDS011;61668;45.388;11.784;2022-12-20T10:18:08;23.60;;;12.40;;
68577;SDS011;61668;45.388;11.784;2022-12-20T10:24:08;24.50;;;13.10;;
68577;SDS011;61668;45.388;11.784;2022-12-20T10:26:37;25.20;;;13.30;;
68577;SDS011;61668;45.388;11.784;2022-12-20T10:29:03;22.10;;;12.10;;
68577;SDS011;61668;45.388;11.784;2022-12-20T10:31:29;25.90;;;13.10;;
68577;SDS011;61668;45.388;11.784;2022-12-20T10:33:54;23.60;;;12.80;;
68577;SDS011;61668;45.388;11.784;2022-12-20T10:36:31;24.40;;;12.10;;
68577;SDS011;61668;45.388;11.784;2022-12-20T10:39:01;23.80;;;13.20;;
68577;SDS011;61668;45.388;11.784;2022-12-20T10:44:18;24.70;;;12.80;;
68577;SDS011;61668;45.388;11.784;2022-12-20T10:46:51;23.80;;;11.60;;
68577;SDS011;61668;45.388;11.784;2022-12-20T10:49:32;25.30;;;13.80;;
68577;SDS011;61668;45.388;11.784;2022-12-20T10:54:44;24.20;;;12.90;;
68577;SDS011;61668;45.388;11.784;2022-12-20T10:59:58;24.30;;;11.60;;
68577;SDS011;61668;45.388;11.784;2022-12-20T11:02:34;20.70;;;10.50;;
68577;SDS011;61668;45.388;11.784;2022-12-20T11:07:57;21.80;;;10.40;;
68577;SDS011;61668;45.388;11.784;2022-12-20T11:10:34;21.50;;;11.20;;
68577;SDS011;61668;45.388;11.784;2022-12-20T11:13:02;24.50;;;11.90;;
68577;SDS011;61668;45.388;11.784;2022-12-20T11:15:35;21.50;;;10.60;;
68577;SDS011;61668;45.388;11.784;2022-12-20T11:18:08;23.00;;;10.30;;
68577;SDS011;61668;45.388;11.784;2022-12-20T11:20:42;25.30;;;11.60;;
68577;SDS011;61668;45.388;11.784;2022-12-20T11:23:38;23.80;;;11.10;;
68577;SDS011;61668;45.388;11.784;2022-12-20T11:26:33;26.20;;;13.50;;
68577;SDS011;61668;45.388;11.784;2022-12-20T11:29:35;27.50;;;12.80;;
68577;SDS011;61668;45.388;11.784;2022-12-20T11:35:50;23.40;;;10.40;;
68577;SDS011;61668;45.388;11.784;2022-12-20T11:38:41;24.30;;;12.30;;
68577;SDS011;61668;45.388;11.784;2022-12-20T11:41:36;27.10;;;12.20;;
68577;SDS011;61668;45.388;11.784;2022-12-20T11:47:31;24.10;;;11.40;;
68577;SDS011;61668;45.388;11.784;2022-12-20T11:53:39;25.10;;;11.90;;
68577;SDS011;61668;45.388;11.784;2022-12-20T11:56:19;30.10;;;15.80;;
68577;SDS011;61668;45.388;11.784;2022-12-20T11:59:00;29.70;;;14.70;;
68577;SDS011;61668;45.388;11.784;2022-12-20T12:01:37;24.70;;;13.80;;
68577;SDS011;61668;45.388;11.784;2022-12-20T12:04:25;26.50;;;13.20;;
68577;SDS011;61668;45.388;11.784;2022-12-20T12:07:00;27.40;;;12.90;;
68577;SDS011;61668;45.388;11.784;2022-12-20T12:09:38;29.40;;;13.00;;
68577;SDS011;61668;45.388;11.784;2022-12-20T12:12:17;23.30;;;13.80;;
68577;SDS011;61668;45.388;11.784;2022-12-20T12:20:44;23.40;;;11.30;;
68577;SDS011;61668;45.388;11.784;2022-12-20T12:23:43;23.90;;;11.80;;
68577;SDS011;61668;45.388;11.784;2022-12-20T12:26:26;24.40;;;12.30;;
68577;SDS011;61668;45.388;11.784;2022-12-20T12:28:59;24.80;;;12.20;;
68577;SDS011;61668;45.388;11.784;2022-12-20T12:31:37;25.90;;;11.50;;
68577;SDS011;61668;45.388;11.784;2022-12-20T12:50:56;27.00;;;12.00;;
68577;SDS011;61668;45.388;11.784;2022-12-20T12:53:34;23.10;;;10.90;;
68577;SDS011;61668;45.388;11.784;2022-12-20T12:56:46;24.80;;;12.30;;
68577;SDS011;61668;45.388;11.784;2022-12-20T12:59:39;25.60;;;12.00;;
68577;SDS011;61668;45.388;11.784;2022-12-20T13:12:46;27.70;;;12.00;;
68577;SDS011;61668;45.388;11.784;2022-12-20T13:17:57;25.00;;;13.10;;
68577;SDS011;61668;45.388;11.784;2022-12-20T13:20:30;26.90;;;11.70;;
68577;SDS011;61668;45.388;11.784;2022-12-20T13:25:38;24.50;;;11.70;;
68577;SDS011;61668;45.388;11.784;2022-12-20T13:33:45;35.00;;;16.10;;
68577;SDS011;61668;45.388;11.784;2022-12-20T13:38:39;24.30;;;11.60;;
68577;SDS011;61668;45.388;11.784;2022-12-20T13:43:48;22.20;;;10.80;;
68577;SDS011;61668;45.388;11.784;2022-12-20T13:46:34;24.70;;;11.80;;
68577;SDS011;61668;45.388;11.784;2022-12-20T13:49:10;24.40;;;10.60;;
68577;SDS011;61668;45.388;11.784;2022-12-20T13:52:18;22.90;;;10.50;;
68577;SDS011;61668;45.388;11.784;2022-12-20T13:54:49;28.00;;;12.30;;
68577;SDS011;61668;45.388;11.784;2022-12-20T13:57:32;24.00;;;11.10;;
68577;SDS011;61668;45.388;11.784;2022-12-20T14:00:14;25.10;;;12.40;;
68577;SDS011;61668;45.388;11.784;2022-12-20T14:02:50;34.40;;;16.50;;
68577;SDS011;61668;45.388;11.784;2022-12-20T14:05:25;25.20;;;12.20;;
68577;SDS011;61668;45.388;11.784;2022-12-20T14:07:59;23.40;;;11.80;;
68577;SDS011;61668;45.388;11.784;2022-12-20T14:10:31;26.30;;;12.50;;
68577;SDS011;61668;45.388;11.784;2022-12-20T14:12:58;24.40;;;12.80;;
68577;SDS011;61668;45.388;11.784;2022-12-20T14:15:33;26.40;;;13.50;;
68577;SDS011;61668;45.388;11.784;2022-12-20T14:18:19;24.30;;;12.90;;
68577;SDS011;61668;45.388;11.784;2022-12-20T14:23:22;25.50;;;12.80;;
68577;SDS011;61668;45.388;11.784;2022-12-20T14:26:12;23.20;;;12.00;;
68577;SDS011;61668;45.388;11.784;2022-12-20T14:28:50;26.80;;;11.90;;
68577;SDS011;61668;45.388;11.784;2022-12-20T14:31:36;26.60;;;14.10;;
68577;SDS011;61668;45.388;11.784;2022-12-20T14:36:38;25.40;;;11.30;;
68577;SDS011;61668;45.388;11.784;2022-12-20T14:41:59;23.90;;;11.30;;
68577;SDS011;61668;45.388;11.784;2022-12-20T14:44:28;25.80;;;12.30;;
68577;SDS011;61668;45.388;11.784;2022-12-20T14:46:59;27.50;;;11.60;;
68577;SDS011;61668;45.388;11.784;2022-12-20T14:49:31;24.00;;;11.70;;
68577;SDS011;61668;45.388;11.784;2022-12-20T15:10:39;26.00;;;13.20;;
68577;SDS011;61668;45.388;11.784;2022-12-20T15:13:15;26.50;;;14.00;;
68577;SDS011;61668;45.388;11.784;2022-12-20T15:15:42;27.60;;;13.30;;
68577;SDS011;61668;45.388;11.784;2022-12-20T15:18:17;24.40;;;12.70;;
68577;SDS011;61668;45.388;11.784;2022-12-20T15:20:53;27.90;;;13.60;;
68577;SDS011;61668;45.388;11.784;2022-12-20T15:23:25;25.20;;;12.40;;
68577;SDS011;61668;45.388;11.784;2022-12-20T15:25:50;26.30;;;11.60;;
68577;SDS011;61668;45.388;11.784;2022-12-20T15:28:21;27.50;;;12.50;;
68577;SDS011;61668;45.388;11.784;2022-12-20T15:30:51;23.90;;;11.60;;
68577;SDS011;61668;45.388;11.784;2022-12-20T15:33:26;25.40;;;13.30;;
68577;SDS011;61668;45.388;11.784;2022-12-20T15:35:53;24.60;;;12.90;;
68577;SDS011;61668;45.388;11.784;2022-12-20T15:38:24;26.80;;;14.20;;
68577;SDS011;61668;45.388;11.784;2022-12-20T15:40:53;26.90;;;14.00;;
68577;SDS011;61668;45.388;11.784;2022-12-20T15:43:22;25.70;;;13.30;;
68577;SDS011;61668;45.388;11.784;2022-12-20T15:45:52;30.30;;;14.00;;
68577;SDS011;61668;45.388;11.784;2022-12-20T15:48:22;30.90;;;13.90;;
68577;SDS011;61668;45.388;11.784;2022-12-20T15:50:52;26.60;;;12.70;;
68577;SDS011;61668;45.388;11.784;2022-12-20T15:53:23;24.20;;;13.30;;
68577;SDS011;61668;45.388;11.784;2022-12-20T15:55:54;27.70;;;13.70;;
68577;SDS011;61668;45.388;11.784;2022-12-20T15:58:22;27.50;;;13.30;;
68577;SDS011;61668;45.388;11.784;2022-12-20T16:00:49;28.10;;;14.60;;
68577;SDS011;61668;45.388;11.784;2022-12-20T16:03:20;27.40;;;13.10;;
68577;SDS011;61668;45.388;11.784;2022-12-20T16:05:49;27.50;;;13.40;;
68577;SDS011;61668;45.388;11.784;2022-12-20T16:08:17;30.10;;;14.70;;
68577;SDS011;61668;45.388;11.784;2022-12-20T16:10:47;28.30;;;14.30;;
68577;SDS011;61668;45.388;11.784;2022-12-20T16:13:21;28.50;;;13.40;;
68577;SDS011;61668;45.388;11.784;2022-12-20T16:15:48;27.80;;;12.10;;
68577;SDS011;61668;45.388;11.784;2022-12-20T16:18:15;27.90;;;13.10;;
68577;SDS011;61668;45.388;11.784;2022-12-20T16:20:41;27.60;;;13.90;;
68577;SDS011;61668;45.388;11.784;2022-12-20T16:23:16;27.20;;;13.70;;
68577;SDS011;61668;45.388;11.784;2022-12-20T16:25:44;28.50;;;13.60;;
68577;SDS011;61668;45.388;11.784;2022-12-20T16:28:10;27.80;;;13.00;;